createdAt,value
2022-10-07T00:01:09.979Z,100.00
2022-10-07T00:03:38.272Z,100.00
2022-10-07T00:06:11.768Z,100.00
2022-10-07T00:08:40.865Z,100.00
2022-10-07T00:11:11.431Z,100.00
2022-10-07T00:13:41.485Z,100.00
2022-10-07T00:16:13.380Z,100.00
2022-10-07T00:18:44.346Z,100.00
2022-10-07T00:21:15.968Z,100.00
2022-10-07T00:23:45.478Z,100.00
2022-10-07T00:26:16.185Z,100.00
2022-10-07T00:28:44.814Z,100.00
2022-10-07T00:31:16.702Z,100.00
2022-10-07T00:33:45.381Z,100.00
2022-10-07T00:36:19.548Z,100.00
2022-10-07T00:38:51.831Z,100.00
2022-10-07T00:41:22.679Z,100.00
2022-10-07T00:43:51.106Z,100.00
2022-10-07T00:46:29.407Z,100.00
2022-10-07T00:48:59.875Z,100.00
2022-10-07T00:51:29.783Z,100.00
2022-10-07T00:53:57.977Z,100.00
2022-10-07T00:56:27.913Z,100.00
2022-10-07T00:58:56.467Z,100.00
2022-10-07T01:07:32.142Z,100.00
2022-10-07T01:10:01.571Z,100.00
2022-10-07T01:12:36.027Z,100.00
2022-10-07T01:15:16.211Z,100.00
2022-10-07T01:17:50.064Z,100.00
2022-10-07T01:20:26.541Z,100.00
2022-10-07T01:23:11.768Z,100.00
2022-10-07T01:25:56.102Z,100.00
2022-10-07T01:28:32.388Z,100.00
2022-10-07T01:31:05.140Z,100.00
2022-10-07T01:33:35.785Z,100.00
2022-10-07T01:36:09.307Z,100.00
2022-10-07T01:38:43.120Z,100.00
2022-10-07T01:41:15.533Z,100.00
2022-10-07T01:43:49.455Z,100.00
2022-10-07T01:46:22.108Z,100.00
2022-10-07T01:48:51.926Z,100.00
2022-10-07T01:51:23.846Z,100.00
2022-10-07T01:54:02.465Z,100.00
2022-10-07T01:56:46.716Z,100.00
2022-10-07T01:59:39.343Z,100.00
2022-10-07T02:02:20.271Z,100.00
2022-10-07T02:04:59.340Z,100.00
2022-10-07T02:07:38.762Z,100.00
2022-10-07T02:10:16.718Z,100.00
2022-10-07T02:12:52.001Z,100.00
2022-10-07T02:15:26.824Z,100.00
2022-10-07T02:17:58.019Z,100.00
2022-10-07T02:20:31.013Z,100.00
2022-10-07T02:23:02.604Z,100.00
2022-10-07T02:25:36.131Z,100.00
2022-10-07T02:28:06.320Z,100.00
2022-10-07T02:30:38.962Z,100.00
2022-10-07T02:33:10.314Z,100.00
2022-10-07T02:35:45.104Z,100.00
2022-10-07T02:38:16.127Z,100.00
2022-10-07T02:40:59.856Z,100.00
2022-10-07T02:43:31.973Z,100.00
2022-10-07T02:46:08.112Z,100.00
2022-10-07T02:48:42.102Z,100.00
2022-10-07T02:51:12.113Z,100.00
2022-10-07T02:53:43.273Z,100.00
2022-10-07T02:56:13.941Z,100.00
2022-10-07T02:58:45.906Z,100.00
2022-10-07T03:01:21.367Z,100.00
2022-10-07T03:03:52.280Z,100.00
2022-10-07T03:06:20.400Z,100.00
2022-10-07T03:08:48.884Z,100.00
2022-10-07T03:11:17.610Z,100.00
2022-10-07T03:13:45.765Z,100.00
2022-10-07T03:16:13.749Z,100.00
2022-10-07T03:18:43.019Z,100.00
2022-10-07T03:21:27.223Z,100.00
2022-10-07T03:23:57.221Z,100.00
2022-10-07T03:26:31.268Z,100.00
2022-10-07T03:28:59.665Z,100.00
2022-10-07T03:31:28.639Z,100.00
2022-10-07T03:34:03.547Z,100.00
2022-10-07T03:36:37.059Z,100.00
2022-10-07T03:39:06.858Z,100.00
2022-10-07T03:41:34.809Z,100.00
2022-10-07T03:44:04.001Z,100.00
2022-10-07T03:46:32.068Z,100.00
2022-10-07T03:49:03.422Z,100.00
2022-10-07T03:51:31.943Z,100.00
2022-10-07T03:54:01.222Z,100.00
2022-10-07T03:56:32.792Z,100.00
2022-10-07T03:59:02.002Z,100.00
2022-10-07T04:01:32.863Z,100.00
2022-10-07T04:04:03.589Z,100.00
2022-10-07T04:06:36.693Z,100.00
2022-10-07T04:09:10.858Z,100.00
2022-10-07T04:11:40.743Z,100.00
2022-10-07T04:14:12.028Z,100.00
2022-10-07T04:16:41.959Z,100.00
2022-10-07T04:19:14.247Z,100.00
2022-10-07T04:21:44.099Z,100.00
2022-10-07T04:24:12.778Z,100.00
2022-10-07T04:26:40.453Z,100.00
2022-10-07T04:29:08.584Z,100.00
2022-10-07T04:31:37.548Z,100.00
2022-10-07T04:34:06.756Z,100.00
2022-10-07T04:36:40.962Z,100.00
2022-10-07T04:39:13.508Z,100.00
2022-10-07T04:41:47.897Z,100.00
2022-10-07T04:44:20.909Z,100.00
2022-10-07T04:46:56.875Z,100.00
2022-10-07T04:49:27.947Z,100.00
2022-10-07T04:51:58.881Z,100.00
2022-10-07T04:54:32.652Z,100.00
2022-10-07T04:57:00.676Z,100.00
2022-10-07T04:59:30.165Z,100.00
2022-10-07T05:01:59.455Z,100.00
2022-10-07T05:04:29.044Z,100.00
2022-10-07T05:07:00.168Z,100.00
2022-10-07T05:09:30.019Z,100.00
2022-10-07T05:11:58.437Z,100.00
2022-10-07T05:14:26.224Z,100.00
2022-10-07T05:16:56.483Z,100.00
2022-10-07T05:19:28.415Z,100.00
2022-10-07T05:21:56.542Z,100.00
2022-10-07T05:24:28.633Z,100.00
2022-10-07T05:26:56.853Z,100.00
2022-10-07T05:29:25.076Z,100.00
2022-10-07T05:31:54.907Z,100.00
2022-10-07T05:34:26.230Z,100.00
2022-10-07T05:36:55.609Z,100.00
2022-10-07T05:39:24.210Z,100.00
2022-10-07T05:42:13.737Z,100.00
2022-10-07T05:44:48.870Z,100.00
2022-10-07T05:47:18.507Z,100.00
2022-10-07T05:49:46.748Z,100.00
2022-10-07T05:52:15.198Z,100.00
2022-10-07T05:54:46.083Z,100.00
2022-10-07T05:57:16.593Z,100.00
2022-10-07T05:59:44.802Z,100.00
2022-10-07T06:02:15.719Z,100.00
2022-10-07T06:04:45.291Z,100.00
2022-10-07T06:07:18.217Z,100.00
2022-10-07T06:10:06.328Z,100.00
2022-10-07T06:12:56.101Z,100.00
2022-10-07T06:15:26.059Z,100.00
2022-10-07T06:17:54.153Z,100.00
2022-10-07T06:20:22.954Z,100.00
2022-10-07T06:22:54.723Z,100.00
2022-10-07T06:25:22.951Z,98.98
2022-10-07T06:27:54.383Z,98.69
2022-10-07T06:30:25.781Z,97.85
2022-10-07T06:32:54.595Z,99.98
2022-10-07T06:35:23.035Z,98.77
2022-10-07T06:37:52.246Z,95.96
2022-10-07T06:40:20.361Z,95.53
2022-10-07T06:42:48.307Z,96.25
2022-10-07T06:45:25.500Z,98.13
2022-10-07T06:47:54.776Z,99.09
2022-10-07T06:50:24.074Z,98.15
2022-10-07T06:52:52.903Z,89.39
2022-10-07T06:55:21.563Z,91.44
2022-10-07T06:57:49.391Z,92.52
2022-10-07T07:00:20.380Z,89.95
2022-10-07T07:02:50.794Z,88.08
2022-10-07T07:05:19.184Z,87.58
2022-10-07T07:07:49.313Z,87.52
2022-10-07T07:10:18.017Z,89.54
2022-10-07T07:12:49.836Z,88.58
2022-10-07T07:15:18.528Z,90.80
2022-10-07T07:17:47.082Z,92.91
2022-10-07T07:20:19.567Z,97.72
2022-10-07T07:22:49.571Z,95.44
2022-10-07T07:25:17.966Z,88.85
2022-10-07T07:27:48.741Z,86.57
2022-10-07T07:30:23.112Z,86.74
2022-10-07T07:32:52.718Z,87.99
2022-10-07T07:35:22.385Z,86.98
2022-10-07T07:37:50.690Z,84.93
2022-10-07T07:40:20.222Z,82.49
2022-10-07T07:42:51.412Z,87.25
2022-10-07T07:45:20.471Z,90.59
2022-10-07T07:47:50.545Z,88.00
2022-10-07T07:50:27.115Z,88.17
2022-10-07T07:53:00.163Z,84.34
2022-10-07T07:55:28.431Z,88.85
2022-10-07T07:57:56.641Z,89.29
2022-10-07T08:00:24.692Z,86.57
2022-10-07T08:03:01.948Z,77.71
2022-10-07T08:05:30.192Z,71.40
2022-10-07T08:08:01.920Z,77.03
2022-10-07T08:10:30.406Z,77.94
2022-10-07T08:12:58.531Z,73.73
2022-10-07T08:15:26.684Z,73.92
2022-10-07T08:17:55.118Z,77.50
2022-10-07T08:20:23.693Z,75.78
2022-10-07T08:22:58.200Z,77.53
2022-10-07T08:25:29.537Z,80.93
2022-10-07T08:27:59.250Z,81.34
2022-10-07T08:30:28.253Z,79.54
2022-10-07T08:33:01.030Z,72.42
2022-10-07T08:35:29.403Z,76.35
2022-10-07T08:37:57.258Z,73.80
2022-10-07T08:43:27.936Z,73.33
2022-10-07T08:46:01.642Z,73.94
2022-10-07T08:48:39.596Z,70.89
2022-10-07T08:58:07.152Z,64.29
2022-10-07T09:00:47.718Z,61.93
2022-10-07T09:03:38.452Z,61.63
2022-10-07T09:06:34.138Z,56.94
2022-10-07T09:12:00.669Z,56.01
2022-10-07T09:14:36.139Z,54.40
2022-10-07T09:17:38.669Z,49.43
2022-10-07T09:20:30.610Z,47.18
2022-10-07T09:23:08.349Z,44.35
2022-10-07T09:25:37.296Z,41.27
2022-10-07T09:28:05.598Z,41.74
2022-10-07T09:30:40.575Z,42.85
2022-10-07T09:33:18.109Z,39.89
2022-10-07T09:35:57.660Z,38.65
2022-10-07T09:38:39.207Z,36.99
2022-10-07T09:41:25.837Z,34.51
2022-10-07T09:44:15.224Z,34.08
2022-10-07T09:47:04.156Z,32.39
2022-10-07T09:49:43.736Z,30.17
2022-10-07T09:56:01.245Z,24.86
2022-10-07T09:58:53.891Z,26.67
2022-10-07T10:01:43.515Z,25.06
2022-10-07T10:04:19.489Z,23.54
2022-10-07T10:06:51.967Z,22.75
2022-10-07T10:09:27.062Z,23.12
2022-10-07T10:12:07.987Z,23.84
2022-10-07T10:14:45.957Z,22.55
2022-10-07T10:17:39.908Z,21.32
2022-10-07T10:20:33.971Z,22.74
2022-10-07T10:23:02.931Z,25.40
2022-10-07T10:26:15.108Z,27.30
2022-10-07T10:28:55.053Z,27.01
2022-10-07T10:31:46.282Z,24.72
2022-10-07T10:34:39.321Z,25.73
2022-10-07T10:37:20.693Z,23.08
2022-10-07T10:40:07.652Z,20.33
2022-10-07T10:42:48.638Z,18.32
2022-10-07T10:45:44.971Z,18.74
2022-10-07T10:48:32.150Z,18.99
2022-10-07T10:52:03.914Z,17.51
2022-10-07T10:54:50.199Z,20.28
2022-10-07T10:57:37.597Z,21.11
2022-10-07T11:00:59.810Z,22.13
2022-10-07T11:03:41.843Z,22.62
2022-10-07T11:06:16.590Z,29.66
2022-10-07T11:08:51.620Z,27.62
2022-10-07T11:14:43.872Z,25.59
2022-10-07T11:21:39.979Z,25.55
2022-10-07T11:24:30.101Z,26.20
2022-10-07T11:27:18.857Z,25.30
2022-10-07T11:33:13.456Z,19.40
2022-10-07T11:36:04.304Z,19.90
2022-10-07T11:39:01.550Z,19.32
2022-10-07T11:41:47.259Z,19.69
2022-10-07T11:57:33.138Z,19.56
2022-10-07T12:00:09.138Z,18.54
2022-10-07T12:02:53.848Z,21.88
2022-10-07T12:29:39.968Z,22.78
2022-10-07T12:32:59.962Z,22.78
2022-10-07T12:46:11.394Z,29.72
2022-10-07T12:51:43.172Z,26.77
2022-10-07T12:54:21.125Z,24.10
2022-10-07T12:56:53.922Z,23.21
2022-10-07T13:00:08.152Z,22.04
2022-10-07T13:07:28.451Z,24.34
2022-10-07T13:10:47.819Z,27.44
2022-10-07T13:13:27.112Z,30.63
2022-10-07T13:16:09.954Z,27.82
2022-10-07T13:18:48.160Z,27.12
2022-10-07T13:21:27.063Z,29.33
2022-10-07T13:23:57.713Z,26.81
2022-10-07T13:26:39.139Z,28.96
2022-10-07T13:29:31.289Z,26.66
2022-10-07T13:35:39.776Z,20.88
2022-10-07T13:38:34.274Z,21.52
2022-10-07T13:44:46.522Z,22.68
2022-10-07T13:47:38.155Z,23.82
2022-10-07T13:50:12.214Z,24.62
2022-10-07T13:55:49.769Z,26.12
2022-10-07T14:04:37.881Z,19.78
2022-10-07T14:07:35.837Z,19.66
2022-10-07T14:25:34.015Z,22.75
2022-10-07T14:28:34.176Z,22.63
2022-10-07T14:35:11.399Z,22.02
2022-10-07T14:40:52.317Z,20.71
2022-10-07T14:43:38.003Z,21.36
2022-10-07T14:49:18.500Z,21.35
2022-10-07T14:52:17.180Z,22.32
2022-10-07T14:58:06.322Z,24.20
2022-10-07T15:03:24.206Z,28.46
2022-10-07T15:06:01.145Z,27.92
2022-10-07T15:08:36.293Z,28.89
2022-10-07T15:11:18.629Z,28.74
2022-10-07T15:13:54.550Z,29.42
2022-10-07T15:16:50.486Z,30.90
2022-10-07T15:22:20.073Z,30.24
2022-10-07T15:25:13.149Z,30.79
2022-10-07T15:27:53.096Z,30.83
2022-10-07T15:33:12.784Z,32.72
2022-10-07T15:35:45.573Z,33.74
2022-10-07T15:38:15.873Z,36.13
2022-10-07T15:41:10.987Z,39.55
2022-10-07T15:43:44.413Z,40.42
2022-10-07T15:46:17.359Z,39.27
2022-10-07T15:48:49.161Z,39.85
2022-10-07T15:51:20.045Z,42.75
2022-10-07T15:54:12.862Z,45.38
2022-10-07T15:56:58.608Z,46.74
2022-10-07T15:59:28.264Z,48.29
2022-10-07T16:02:03.111Z,48.99
2022-10-07T16:04:33.873Z,49.50
2022-10-07T16:07:09.103Z,49.85
2022-10-07T16:13:18.492Z,51.18
2022-10-07T16:19:31.969Z,51.46
2022-10-07T16:22:05.982Z,51.96
2022-10-07T16:24:37.640Z,52.18
2022-10-07T16:27:12.076Z,52.52
2022-10-07T16:30:00.013Z,53.32
2022-10-07T16:32:49.019Z,54.33
2022-10-07T16:35:39.841Z,55.48
2022-10-07T16:38:16.113Z,56.61
2022-10-07T16:41:12.032Z,57.62
2022-10-07T16:44:00.066Z,58.46
2022-10-07T16:46:33.437Z,59.45
2022-10-07T16:52:29.389Z,62.03
2022-10-07T16:58:04.882Z,63.59
2022-10-07T17:15:25.865Z,69.55
2022-10-07T17:17:55.872Z,70.12
2022-10-07T17:20:24.944Z,70.54
2022-10-07T17:22:53.090Z,70.57
2022-10-07T17:25:20.955Z,70.23
2022-10-07T17:27:49.327Z,72.40
2022-10-07T17:30:17.788Z,71.91
2022-10-07T17:32:50.778Z,71.91
2022-10-07T17:35:18.710Z,73.97
2022-10-07T17:37:46.887Z,74.90
2022-10-07T17:40:15.598Z,75.23
2022-10-07T17:42:44.842Z,75.38
2022-10-07T17:45:12.794Z,76.03
2022-10-07T17:47:40.779Z,76.33
2022-10-07T17:50:10.806Z,76.16
2022-10-07T17:52:38.627Z,75.20
2022-10-07T17:55:08.029Z,76.04
2022-10-07T17:57:35.945Z,76.46
2022-10-07T18:00:06.239Z,77.14
2022-10-07T18:02:40.012Z,78.09
2022-10-07T18:05:11.097Z,78.05
2022-10-07T18:07:39.467Z,77.47
2022-10-07T18:10:08.261Z,77.60
2022-10-07T18:12:54.178Z,79.19
2022-10-07T18:15:23.341Z,80.75
2022-10-07T18:17:56.433Z,80.73
2022-10-07T18:20:28.169Z,82.24
2022-10-07T18:22:57.348Z,82.49
2022-10-07T18:25:25.658Z,82.19
2022-10-07T18:27:54.524Z,81.53
2022-10-07T18:30:22.454Z,80.52
2022-10-07T18:32:51.635Z,79.37
2022-10-07T18:35:19.583Z,78.63
2022-10-07T18:37:49.530Z,79.46
2022-10-07T18:40:17.456Z,79.46
2022-10-07T18:42:45.504Z,79.07
2022-10-07T18:45:13.411Z,78.88
2022-10-07T18:47:41.859Z,78.72
2022-10-07T18:50:11.068Z,78.23
2022-10-07T18:52:39.450Z,78.05
2022-10-07T18:55:09.981Z,77.78
2022-10-07T18:57:38.261Z,77.03
2022-10-07T19:00:07.698Z,76.75
2022-10-07T19:02:35.679Z,76.23
2022-10-07T19:05:04.029Z,76.92
2022-10-07T19:07:33.255Z,79.42
2022-10-07T19:10:01.759Z,80.20
2022-10-07T19:12:49.161Z,80.79
2022-10-07T19:15:19.002Z,80.29
2022-10-07T19:17:47.879Z,79.74
2022-10-07T19:20:18.411Z,79.41
2022-10-07T19:22:48.725Z,78.72
2022-10-07T19:25:36.088Z,79.60
2022-10-07T19:28:06.557Z,79.44
2022-10-07T19:30:34.976Z,78.82
2022-10-07T22:44:12.990Z,93.39
2022-10-07T22:46:41.028Z,91.44
2022-10-07T22:49:09.536Z,89.79
2022-10-07T22:51:37.994Z,88.41
2022-10-07T22:54:08.005Z,88.53
2022-10-07T22:56:36.049Z,90.63
2022-10-07T22:59:04.166Z,91.26
2022-10-07T23:01:33.472Z,90.99
2022-10-07T23:04:03.162Z,90.78
2022-10-07T23:06:33.035Z,89.59
2022-10-07T23:09:01.764Z,88.87
2022-10-07T23:11:31.734Z,88.19
2022-10-07T23:14:00.108Z,87.15
2022-10-07T23:16:29.771Z,86.42
2022-10-07T23:19:00.039Z,86.27
2022-10-07T23:21:29.402Z,86.74
2022-10-07T23:24:06.026Z,86.24
2022-10-07T23:26:35.459Z,85.56
2022-10-07T23:29:03.972Z,85.65
2022-10-07T23:31:33.397Z,85.26
2022-10-07T23:34:03.176Z,84.95
2022-10-07T23:36:31.875Z,84.08
2022-10-07T23:39:01.362Z,84.06
2022-10-07T23:41:30.869Z,83.80
2022-10-07T23:44:00.456Z,83.95
2022-10-07T23:46:31.182Z,83.88
2022-10-07T23:49:00.541Z,83.49
2022-10-07T23:51:32.339Z,82.56
2022-10-07T23:54:02.132Z,83.42
2022-10-07T23:56:31.275Z,84.32
2022-10-07T23:59:00.732Z,84.94
